SPJL/JUL METAR and TAF weather

Enter ICAO airport designator
Station Type Date Time Source
SPJL METAR 2022/06/27 18:00 UTC NOAA

SPJL 271800Z 35005KT CAVOK 15/M11 Q1036 RMK TX17.3/TNM5.5 PP000


Station Type Date Time Source
SPJL Decoded METAR 2022/06/27 18:00 UTC NOAA

Juliaca, Peru (SPJL) 15-29S 070-09W 3827M
Jun 27, 2022 - 02:00 PM EDT / 2022.06.27 1800 UTC
Wind: from the N (350 degrees) at 6 MPH (5 KT):0
Visibility: greater than 7 mile(s):0
Temperature: 59 F (15 C)
Dew Point: 12 F (-11 C)
Relative Humidity: 15%
Pressure (altimeter): 30.59 in. Hg (1036 hPa)
ob: SPJL 271800Z 35005KT CAVOK 15/M11 Q1036 RMK TX17.3/TNM5.5 PP000
cycle: 18

Station Type Date Time Source
SPJL TAF 2022/06/27 12:33 UTC NOAA

TAF SPJL 271110Z 2712/2812 03005KT CAVOK TX16/2718Z TNM08/2810Z

Example: see airport list